PAX weather

Port-de-Paix Airport
Port-de-Paix, Nord-Ouest Department, Haiti

Public forecast

Using degrees Celsius for public forecast. Weather courtesy of forecast.io.

Closest aviation weather report (METAR) to Port-de-Paix Airport

Report is more than 6 hours old.

Closest report is Cap Haitien International Airport, 38.8 nm (71.9 km) ESE. Retrieved 2020/02/18 20:52 UTC (13 hours ago):

MTCH 182052Z 05010G20KT 9000 SCT025CB 28/21 Q1016 RMK

Closest aviation forecast (TAF) to Port-de-Paix Airport

Forecast is more than 6 hours old.

Closest forecast is Cap Haitien International Airport, 38.8 nm (71.9 km) ESE. Retrieved 2020-02-19 00:57 UTC (9 hours ago):

TAF TAF MTCH 182252Z 1900/1924 05010G20KT 9000 SCT025CB PROB30 TEMPO 1900/1909 4000 SHRA BECMG 1910/1914 VRB02KT 9000 FEW020 TEMPO 1916/1920 01012KT